createdAt,value
2019-02-27T00:01:54.455Z,23.13
2019-02-27T00:04:32.796Z,23.17
2019-02-27T00:07:04.672Z,21.10
2019-02-27T00:09:35.377Z,20.83
2019-02-27T00:12:06.053Z,23.90
2019-02-27T00:14:36.652Z,23.20
2019-02-27T00:17:08.338Z,24.30
2019-02-27T00:19:39.005Z,22.50
2019-02-27T00:22:09.592Z,23.20
2019-02-27T00:24:40.324Z,22.90
2019-02-27T00:27:14.594Z,25.27
2019-02-27T00:29:43.176Z,23.83
2019-02-27T00:32:15.751Z,21.57
2019-02-27T00:34:46.434Z,26.10
2019-02-27T00:37:19.047Z,26.33
2019-02-27T00:39:49.459Z,23.63
2019-02-27T00:42:22.925Z,23.37
2019-02-27T00:44:52.362Z,20.83
2019-02-27T00:47:22.933Z,25.93
2019-02-27T00:49:53.652Z,22.47
2019-02-27T00:52:24.306Z,20.33
2019-02-27T00:54:55.319Z,21.63
2019-02-27T00:57:25.885Z,21.70
2019-02-27T00:59:56.580Z,20.70
2019-02-27T01:02:53.479Z,22.67
2019-02-27T01:05:25.778Z,22.10
2019-02-27T01:07:56.429Z,22.93
2019-02-27T01:10:27.116Z,23.47
2019-02-27T01:12:58.695Z,21.57
2019-02-27T01:15:29.664Z,20.90
2019-02-27T01:18:00.338Z,20.67
2019-02-27T01:20:31.072Z,19.17
2019-02-27T01:23:01.768Z,20.90
2019-02-27T01:25:56.065Z,21.07
2019-02-27T01:28:24.979Z,21.47
2019-02-27T01:30:55.756Z,23.07
2019-02-27T01:33:26.547Z,23.57
2019-02-27T01:36:08.544Z,18.37
2019-02-27T01:38:40.204Z,19.83
2019-02-27T01:41:10.888Z,18.90
2019-02-27T01:43:51.153Z,20.90
2019-02-27T01:46:21.864Z,18.00
2019-02-27T01:48:56.201Z,18.10
2019-02-27T01:51:28.339Z,18.30
2019-02-27T01:54:20.675Z,15.93
2019-02-27T01:56:51.334Z,19.83
2019-02-27T01:59:22.043Z,18.80
2019-02-27T02:02:01.092Z,18.27
2019-02-27T02:04:45.271Z,41.60
2019-02-27T02:07:16.081Z,22.77
2019-02-27T02:09:52.089Z,20.83
2019-02-27T02:12:28.707Z,17.63
2019-02-27T02:15:37.175Z,17.57
2019-02-27T02:18:55.694Z,19.17
2019-02-27T02:22:06.077Z,20.87
2019-02-27T02:25:20.313Z,15.73
2019-02-27T02:28:24.082Z,15.73
2019-02-27T02:31:41.028Z,15.73
2019-02-27T02:34:54.567Z,15.47
2019-02-27T02:38:13.667Z,20.53
2019-02-27T02:41:13.640Z,14.40
2019-02-27T02:44:28.455Z,18.00
2019-02-27T02:47:40.447Z,14.27
2019-02-27T02:50:53.998Z,13.50
2019-02-27T02:53:48.795Z,16.90
2019-02-27T02:57:18.688Z,15.13
2019-02-27T03:00:37.978Z,15.63
2019-02-27T03:03:37.062Z,13.57
2019-02-27T03:06:34.724Z,14.10
2019-02-27T03:09:15.720Z,17.73
2019-02-27T03:12:06.419Z,14.77
2019-02-27T03:14:59.583Z,15.97
2019-02-27T03:18:18.565Z,15.67
2019-02-27T03:21:11.318Z,15.87
2019-02-27T03:24:19.360Z,17.63
2019-02-27T03:27:08.422Z,18.83
2019-02-27T03:30:05.584Z,20.10
2019-02-27T03:33:02.366Z,18.40
2019-02-27T03:36:05.182Z,18.67
2019-02-27T03:39:13.006Z,13.60
2019-02-27T03:42:20.769Z,14.17
2019-02-27T03:45:20.413Z,14.40
2019-02-27T03:48:27.730Z,16.77
2019-02-27T03:51:25.388Z,17.60
2019-02-27T03:54:21.323Z,16.13
2019-02-27T03:57:28.923Z,17.30
2019-02-27T04:00:19.507Z,16.30
2019-02-27T04:03:20.327Z,15.13
2019-02-27T04:06:13.227Z,14.37
2019-02-27T04:08:55.816Z,15.67
2019-02-27T04:11:28.181Z,13.63
2019-02-27T04:14:32.690Z,17.20
2019-02-27T04:17:07.070Z,12.60
2019-02-27T04:19:39.215Z,16.37
2019-02-27T04:22:10.589Z,16.60
2019-02-27T04:24:41.195Z,19.03
2019-02-27T04:27:11.770Z,16.87
2019-02-27T04:29:42.361Z,17.40
2019-02-27T04:32:47.725Z,13.13
2019-02-27T04:35:16.606Z,14.67
2019-02-27T04:37:47.385Z,15.53
2019-02-27T04:40:18.131Z,14.70
2019-02-27T04:42:48.742Z,14.27
2019-02-27T04:45:19.476Z,21.43
2019-02-27T04:47:50.135Z,16.43
2019-02-27T04:50:20.781Z,13.50
2019-02-27T04:52:51.365Z,15.93
2019-02-27T04:55:21.997Z,19.67
2019-02-27T04:57:52.619Z,17.10
2019-02-27T05:00:30.984Z,17.10
2019-02-27T05:03:01.614Z,16.97
2019-02-27T05:05:32.294Z,15.43
2019-02-27T05:08:02.976Z,18.90
2019-02-27T05:10:38.160Z,17.47
2019-02-27T05:13:44.805Z,13.73
2019-02-27T05:16:15.496Z,16.13
2019-02-27T05:18:46.225Z,15.50
2019-02-27T05:21:19.222Z,21.20
2019-02-27T05:23:49.280Z,19.30
2019-02-27T05:26:19.861Z,17.93
2019-02-27T05:28:50.486Z,24.83
2019-02-27T05:31:21.181Z,19.50
2019-02-27T05:34:05.180Z,20.10
2019-02-27T05:36:35.846Z,18.23
2019-02-27T05:39:09.599Z,14.70
2019-02-27T05:41:40.435Z,15.73
2019-02-27T05:44:11.051Z,16.57
2019-02-27T05:46:41.734Z,17.53
2019-02-27T05:49:12.314Z,16.43
2019-02-27T05:51:45.054Z,21.83
2019-02-27T05:54:15.779Z,16.40
2019-02-27T05:56:47.199Z,19.83
2019-02-27T05:59:19.386Z,22.13
2019-02-27T06:01:49.945Z,18.53
2019-02-27T06:04:24.941Z,21.50
2019-02-27T06:06:54.147Z,17.60
2019-02-27T06:09:24.792Z,19.27
2019-02-27T06:11:55.505Z,14.97
2019-02-27T06:14:26.205Z,18.60
2019-02-27T06:16:56.928Z,18.40
2019-02-27T06:19:27.545Z,16.20
2019-02-27T06:21:58.241Z,16.37
2019-02-27T06:24:28.884Z,15.67
2019-02-27T06:26:59.486Z,17.50
2019-02-27T06:29:30.175Z,17.97
2019-02-27T06:32:00.811Z,14.87
2019-02-27T06:34:32.636Z,15.57
2019-02-27T06:37:03.353Z,22.03
2019-02-27T06:39:43.374Z,22.80
2019-02-27T06:42:19.864Z,20.10
2019-02-27T06:44:50.733Z,28.17
2019-02-27T06:47:21.616Z,24.60
2019-02-27T06:50:01.586Z,19.53
2019-02-27T06:52:33.194Z,18.70
2019-02-27T06:55:13.416Z,20.97
2019-02-27T06:57:44.085Z,17.70
2019-02-27T07:00:21.907Z,15.87
2019-02-27T07:02:55.438Z,17.40
2019-02-27T07:05:29.169Z,16.83
2019-02-27T07:08:02.187Z,18.33
2019-02-27T07:10:36.280Z,20.10
2019-02-27T07:13:06.986Z,16.30
2019-02-27T07:15:38.761Z,14.57
2019-02-27T07:18:09.365Z,14.73
2019-02-27T07:20:40.079Z,20.43
2019-02-27T07:23:10.649Z,15.53
2019-02-27T07:25:42.258Z,26.30
2019-02-27T07:28:18.991Z,17.53
2019-02-27T07:31:09.846Z,16.00
2019-02-27T07:33:41.189Z,12.43
2019-02-27T07:36:11.885Z,24.63
2019-02-27T07:38:42.441Z,21.07
2019-02-27T07:41:20.157Z,18.67
2019-02-27T07:43:48.478Z,15.20
2019-02-27T07:46:22.230Z,13.87
2019-02-27T07:48:51.457Z,18.10
2019-02-27T07:51:29.216Z,15.33
2019-02-27T07:53:59.766Z,13.73
2019-02-27T07:56:30.584Z,16.13
2019-02-27T07:59:03.224Z,15.60
2019-02-27T08:01:43.642Z,19.50
2019-02-27T08:04:31.138Z,18.27
2019-02-27T08:07:03.388Z,16.00
2019-02-27T08:09:34.199Z,16.33
2019-02-27T08:12:04.919Z,12.60
2019-02-27T08:14:37.242Z,14.70
2019-02-27T08:17:17.210Z,13.60
2019-02-27T08:19:45.387Z,15.43
2019-02-27T08:22:16.040Z,16.87
2019-02-27T08:24:46.750Z,16.80
2019-02-27T08:27:54.342Z,15.17
2019-02-27T08:30:41.378Z,17.07
2019-02-27T08:33:12.052Z,16.77
2019-02-27T08:35:42.607Z,22.23
2019-02-27T08:38:30.363Z,18.53
2019-02-27T08:41:00.996Z,23.17
2019-02-27T08:43:38.047Z,13.57
2019-02-27T08:46:08.818Z,14.50
2019-02-27T08:48:49.875Z,21.93
2019-02-27T08:51:24.254Z,15.70
2019-02-27T08:53:59.233Z,18.83
2019-02-27T08:56:31.462Z,15.23
2019-02-27T08:59:04.971Z,19.00
2019-02-27T09:01:37.859Z,15.47
2019-02-27T09:04:12.261Z,24.00
2019-02-27T09:06:48.179Z,18.43
2019-02-27T09:09:19.834Z,16.60
2019-02-27T09:12:05.871Z,17.23
2019-02-27T09:14:50.462Z,16.40
2019-02-27T09:17:31.028Z,22.67
2019-02-27T09:20:01.698Z,18.97
2019-02-27T09:22:33.869Z,17.30
2019-02-27T09:25:05.496Z,17.07
2019-02-27T09:27:36.218Z,15.10
2019-02-27T09:30:08.057Z,19.20
2019-02-27T09:32:38.891Z,14.97
2019-02-27T09:35:11.698Z,21.97
2019-02-27T09:37:51.230Z,12.50
2019-02-27T09:40:22.263Z,17.97
2019-02-27T09:42:54.981Z,16.07
2019-02-27T09:45:28.542Z,13.63
2019-02-27T09:47:59.910Z,12.07
2019-02-27T09:50:35.834Z,18.07
2019-02-27T09:53:18.641Z,14.33
2019-02-27T09:55:59.242Z,12.77
2019-02-27T09:58:29.821Z,16.43
2019-02-27T10:01:10.451Z,14.43
2019-02-27T10:03:55.672Z,12.07
2019-02-27T10:06:26.360Z,12.57
2019-02-27T10:08:59.049Z,12.13
2019-02-27T10:11:36.393Z,14.30
2019-02-27T10:14:07.130Z,13.03
2019-02-27T10:16:38.221Z,14.33
2019-02-27T10:19:10.930Z,14.97
2019-02-27T10:21:53.738Z,12.57
2019-02-27T10:24:27.780Z,15.77
2019-02-27T10:26:58.427Z,16.97
2019-02-27T10:29:30.089Z,12.67
2019-02-27T10:32:01.369Z,15.63
2019-02-27T10:34:41.567Z,17.43
2019-02-27T10:37:13.310Z,14.43
2019-02-27T10:39:44.598Z,14.63
2019-02-27T10:42:21.647Z,13.33
2019-02-27T10:44:52.304Z,13.73
2019-02-27T10:47:22.996Z,13.30
2019-02-27T10:50:05.431Z,10.93
2019-02-27T10:52:36.090Z,15.27
2019-02-27T10:55:08.243Z,15.00
2019-02-27T10:57:48.914Z,16.90
2019-02-27T11:03:29.327Z,11.13
2019-02-27T11:06:00.090Z,10.10
2019-02-27T11:08:30.751Z,13.53
2019-02-27T11:11:01.477Z,18.07
2019-02-27T11:13:32.292Z,15.60
2019-02-27T11:16:02.973Z,12.47
2019-02-27T11:18:33.627Z,12.63
2019-02-27T11:21:07.801Z,12.13
2019-02-27T11:23:40.888Z,14.97
2019-02-27T11:26:10.811Z,12.00
2019-02-27T11:28:50.348Z,12.53
2019-02-27T11:31:20.929Z,13.33
2019-02-27T11:33:53.593Z,14.23
2019-02-27T11:36:30.452Z,10.73
2019-02-27T11:39:09.759Z,21.77
2019-02-27T11:41:41.761Z,13.73
2019-02-27T11:44:14.297Z,11.53
2019-02-27T11:46:45.588Z,20.77
2019-02-27T11:49:29.065Z,14.87
2019-02-27T11:51:59.700Z,14.80
2019-02-27T11:54:30.436Z,16.30
2019-02-27T11:57:01.141Z,11.87
2019-02-27T11:59:31.924Z,15.57
2019-02-27T12:02:02.632Z,15.13
2019-02-27T12:05:01.567Z,13.00
2019-02-27T12:07:32.158Z,12.17
2019-02-27T12:10:02.688Z,13.07
2019-02-27T12:12:33.445Z,15.27
2019-02-27T12:15:06.733Z,12.27
2019-02-27T12:17:36.742Z,15.07
2019-02-27T12:20:13.341Z,13.70
2019-02-27T12:22:43.966Z,12.90
2019-02-27T12:25:15.100Z,13.73
2019-02-27T12:27:49.798Z,12.47
2019-02-27T12:30:19.231Z,10.97
2019-02-27T12:32:49.805Z,16.43
2019-02-27T12:38:32.619Z,11.93
2019-02-27T12:41:03.234Z,10.07
2019-02-27T12:43:33.910Z,8.87
2019-02-27T12:46:12.486Z,10.73
2019-02-27T12:48:46.122Z,12.87
2019-02-27T12:51:15.380Z,12.40
2019-02-27T12:53:45.959Z,11.37
2019-02-27T12:56:25.742Z,11.23
2019-02-27T12:58:58.754Z,13.47
2019-02-27T13:01:29.082Z,18.90
2019-02-27T13:04:16.078Z,15.20
2019-02-27T13:06:44.483Z,14.70
2019-02-27T13:09:15.203Z,18.83
2019-02-27T13:11:45.854Z,19.77
2019-02-27T13:14:32.922Z,23.83
2019-02-27T13:17:12.182Z,23.43
2019-02-27T13:19:42.892Z,25.77
2019-02-27T13:22:14.595Z,23.37
2019-02-27T13:24:50.304Z,25.07
2019-02-27T13:27:19.659Z,27.33
2019-02-27T13:29:52.180Z,32.00
2019-02-27T13:32:30.150Z,28.93
2019-02-27T13:35:29.105Z,29.17
2019-02-27T13:37:59.937Z,29.00
2019-02-27T13:40:34.966Z,28.23
2019-02-27T13:43:03.972Z,30.90
2019-02-27T13:45:34.579Z,29.77
2019-02-27T13:48:06.118Z,30.20
2019-02-27T13:50:43.598Z,35.77
2019-02-27T13:53:25.738Z,31.47
2019-02-27T13:55:52.344Z,26.97
2019-02-27T13:58:23.159Z,23.60
2019-02-27T14:01:08.998Z,22.67
2019-02-27T14:03:48.244Z,21.23
2019-02-27T14:06:19.792Z,30.80
2019-02-27T14:08:50.445Z,24.83
2019-02-27T14:11:21.072Z,25.93
2019-02-27T14:14:05.086Z,26.10
2019-02-27T14:16:36.883Z,24.90
2019-02-27T14:19:07.511Z,26.87
2019-02-27T14:21:57.022Z,25.93
2019-02-27T14:24:32.130Z,29.50
2019-02-27T14:27:21.043Z,31.30
2019-02-27T14:29:51.790Z,26.83
2019-02-27T14:32:24.410Z,28.50
2019-02-27T14:34:55.137Z,27.40
2019-02-27T14:37:25.834Z,23.87
2019-02-27T14:40:05.400Z,25.10
2019-02-27T14:42:36.334Z,27.63
2019-02-27T14:45:10.822Z,25.43
2019-02-27T14:47:50.606Z,24.70
2019-02-27T14:50:21.850Z,29.67
2019-02-27T14:52:56.371Z,20.30
2019-02-27T14:55:27.198Z,30.27
2019-02-27T14:57:57.920Z,19.77
2019-02-27T15:00:29.812Z,20.53
2019-02-27T15:03:05.870Z,19.27
2019-02-27T15:05:37.121Z,14.50
2019-02-27T15:08:08.960Z,18.03
2019-02-27T15:10:41.163Z,22.37
2019-02-27T15:13:28.082Z,17.20
2019-02-27T15:15:57.455Z,11.57
2019-02-27T15:18:28.170Z,9.40
2019-02-27T15:24:10.636Z,10.10
2019-02-27T15:26:50.639Z,13.60
2019-02-27T15:29:24.683Z,11.87
2019-02-27T15:32:04.290Z,10.93
2019-02-27T15:34:35.163Z,14.40
2019-02-27T15:37:05.763Z,14.93
2019-02-27T15:39:37.486Z,11.63
2019-02-27T15:42:09.883Z,10.77
2019-02-27T15:44:42.874Z,15.67
2019-02-27T15:47:13.629Z,14.03
2019-02-27T15:49:46.109Z,19.50
2019-02-27T15:52:21.176Z,16.40
2019-02-27T15:54:51.876Z,10.80
2019-02-27T15:57:22.555Z,14.73
2019-02-27T16:00:05.090Z,14.57
2019-02-27T16:02:36.834Z,12.77
2019-02-27T16:05:09.207Z,16.17
2019-02-27T16:07:40.887Z,12.53
2019-02-27T16:10:15.660Z,14.60
2019-02-27T16:13:05.159Z,12.80
2019-02-27T16:15:44.649Z,12.97
2019-02-27T16:18:23.574Z,14.67
2019-02-27T16:20:58.386Z,9.97
2019-02-27T16:23:29.124Z,10.67
2019-02-27T16:26:00.215Z,9.03
2019-02-27T16:28:36.843Z,8.63
2019-02-27T16:31:07.435Z,17.17
2019-02-27T16:33:48.055Z,13.80
2019-02-27T16:36:24.939Z,13.00
2019-02-27T16:39:13.801Z,16.80
2019-02-27T16:41:45.115Z,12.20
2019-02-27T16:44:21.551Z,18.97
2019-02-27T16:47:03.362Z,17.77
2019-02-27T16:49:38.707Z,13.33
2019-02-27T16:52:11.384Z,15.47
2019-02-27T16:54:44.171Z,11.33
2019-02-27T16:57:15.107Z,12.50
2019-02-27T16:59:50.401Z,13.37
2019-02-27T17:02:25.176Z,21.60
2019-02-27T17:05:08.839Z,11.47
2019-02-27T17:07:40.123Z,21.40
2019-02-27T17:10:17.749Z,25.03
2019-02-27T17:12:52.646Z,36.93
2019-02-27T17:15:23.530Z,21.47
2019-02-27T17:18:01.408Z,22.50
2019-02-27T17:20:33.375Z,22.77
2019-02-27T17:23:07.609Z,28.30
2019-02-27T17:25:36.413Z,21.43
2019-02-27T17:28:08.167Z,29.03
2019-02-27T17:30:39.911Z,29.90
2019-02-27T17:33:22.600Z,25.53
2019-02-27T17:35:55.873Z,26.77
2019-02-27T17:38:25.438Z,17.33
2019-02-27T17:40:56.237Z,18.87
2019-02-27T17:43:29.511Z,17.40
2019-02-27T17:45:59.203Z,21.77
2019-02-27T17:48:29.917Z,16.77
2019-02-27T17:51:05.753Z,15.50
2019-02-27T17:53:32.921Z,15.47
2019-02-27T17:56:15.681Z,19.83
2019-02-27T17:58:48.048Z,16.37
2019-02-27T18:01:24.957Z,16.73
2019-02-27T18:04:08.088Z,17.63
2019-02-27T18:06:39.778Z,13.47
2019-02-27T18:09:10.597Z,14.07
2019-02-27T18:11:46.453Z,13.87
2019-02-27T18:14:17.137Z,13.43
2019-02-27T18:16:47.822Z,11.30
2019-02-27T18:19:18.680Z,14.37
2019-02-27T18:21:51.374Z,11.37
2019-02-27T18:24:22.109Z,14.47
2019-02-27T18:26:52.805Z,8.63
2019-02-27T18:29:23.634Z,14.60
2019-02-27T18:32:06.627Z,16.13
2019-02-27T18:34:37.525Z,19.00
2019-02-27T18:37:19.076Z,19.40
2019-02-27T18:39:48.567Z,19.63
2019-02-27T18:42:37.877Z,17.03
2019-02-27T18:45:14.821Z,15.23
2019-02-27T18:47:45.438Z,15.83
2019-02-27T18:50:16.230Z,17.67
2019-02-27T18:52:58.146Z,16.17
2019-02-27T18:55:35.171Z,17.80
2019-02-27T18:58:10.068Z,13.43
2019-02-27T19:00:40.694Z,15.33
2019-02-27T19:03:13.930Z,25.53
2019-02-27T19:05:45.635Z,14.10
2019-02-27T19:08:16.317Z,15.10
2019-02-27T19:10:47.165Z,20.37
2019-02-27T19:13:17.889Z,13.33
2019-02-27T19:15:48.693Z,15.77
2019-02-27T19:18:19.280Z,9.43
2019-02-27T19:20:50.966Z,15.00
2019-02-27T19:23:25.649Z,12.47
2019-02-27T19:25:59.204Z,10.53
2019-02-27T19:28:36.207Z,14.87
2019-02-27T19:31:13.566Z,14.53
2019-02-27T19:33:45.117Z,14.73
2019-02-27T19:36:19.362Z,17.73
2019-02-27T19:38:49.934Z,22.97
2019-02-27T19:41:22.730Z,23.97
2019-02-27T19:43:55.744Z,21.17
2019-02-27T19:46:25.781Z,27.60
2019-02-27T19:48:57.406Z,18.87
2019-02-27T19:51:28.082Z,21.37
2019-02-27T19:53:59.031Z,18.17
2019-02-27T19:56:36.254Z,13.43
2019-02-27T19:59:07.067Z,18.40
2019-02-27T20:01:40.431Z,15.60
2019-02-27T20:04:20.834Z,21.97
2019-02-27T20:06:51.622Z,17.53
2019-02-27T20:09:33.414Z,20.00
2019-02-27T20:12:04.388Z,15.53
2019-02-27T20:14:37.555Z,18.20
2019-02-27T20:17:14.174Z,15.77
2019-02-27T20:20:05.501Z,15.70
2019-02-27T20:22:41.676Z,16.23
2019-02-27T20:25:25.387Z,17.60
2019-02-27T20:27:59.874Z,22.93
2019-02-27T20:30:31.035Z,17.03
2019-02-27T20:33:14.883Z,19.73
2019-02-27T20:35:45.552Z,15.00
2019-02-27T20:38:32.804Z,16.20
2019-02-27T20:41:05.961Z,16.63
2019-02-27T20:43:52.803Z,15.13
2019-02-27T20:46:24.484Z,19.20
2019-02-27T20:49:01.317Z,23.10
2019-02-27T20:51:32.615Z,15.80
2019-02-27T20:54:04.701Z,16.77
2019-02-27T20:56:36.085Z,19.30
2019-02-27T20:59:08.530Z,17.33
2019-02-27T21:01:59.675Z,18.90
2019-02-27T21:04:32.309Z,18.77
2019-02-27T21:07:05.452Z,18.00
2019-02-27T21:09:37.162Z,18.90
2019-02-27T21:12:12.148Z,13.40
2019-02-27T21:14:51.171Z,18.30
2019-02-27T21:17:21.927Z,16.83
2019-02-27T21:19:53.464Z,18.27
2019-02-27T21:22:30.302Z,16.57
2019-02-27T21:25:00.936Z,18.20
2019-02-27T21:27:33.776Z,18.03
2019-02-27T21:30:17.747Z,18.27
2019-02-27T21:32:45.046Z,20.43
2019-02-27T21:35:17.022Z,21.53
2019-02-27T21:38:36.794Z,19.73
2019-02-27T21:41:17.978Z,15.90
2019-02-27T21:46:47.190Z,19.13
2019-02-27T21:49:17.049Z,16.90
2019-02-27T21:51:48.794Z,14.37
2019-02-27T21:54:19.624Z,16.27
2019-02-27T21:56:55.778Z,15.50
2019-02-27T21:59:36.371Z,15.83
2019-02-27T22:02:06.993Z,19.10
2019-02-27T22:04:37.738Z,15.17
2019-02-27T22:07:12.466Z,18.63
2019-02-27T22:10:19.498Z,18.17
2019-02-27T22:12:50.635Z,18.53
2019-02-27T22:15:23.973Z,15.90
2019-02-27T22:17:54.652Z,16.37
2019-02-27T22:20:45.756Z,16.83
2019-02-27T22:23:16.621Z,23.23
2019-02-27T22:25:47.305Z,16.90
2019-02-27T22:28:20.013Z,18.93
2019-02-27T22:31:06.633Z,20.50
2019-02-27T22:33:40.391Z,18.57
2019-02-27T22:36:28.548Z,20.23
2019-02-27T22:39:09.141Z,19.00
2019-02-27T22:41:41.742Z,21.13
2019-02-27T22:44:13.919Z,25.83
2019-02-27T22:46:47.800Z,23.03
2019-02-27T22:49:17.968Z,21.80
2019-02-27T22:52:19.583Z,21.50
2019-02-27T22:54:52.112Z,22.57
2019-02-27T22:57:23.476Z,24.73
2019-02-27T22:59:58.294Z,20.50
2019-02-27T23:02:37.428Z,25.10
2019-02-27T23:05:08.267Z,22.83
2019-02-27T23:08:16.395Z,25.27
2019-02-27T23:10:52.656Z,27.13
2019-02-27T23:13:23.257Z,27.30
2019-02-27T23:15:58.036Z,23.77
2019-02-27T23:18:27.511Z,31.13
2019-02-27T23:21:01.582Z,27.97
2019-02-27T23:23:40.433Z,30.77
2019-02-27T23:26:11.234Z,34.37
2019-02-27T23:28:47.734Z,30.83
2019-02-27T23:31:22.392Z,36.00
2019-02-27T23:33:50.859Z,40.17
2019-02-27T23:36:22.743Z,35.63
2019-02-27T23:38:53.454Z,41.07
2019-02-27T23:41:37.560Z,37.77
2019-02-27T23:44:08.365Z,41.33
2019-02-27T23:46:48.454Z,36.27
2019-02-27T23:49:11.385Z,38.07
2019-02-27T23:51:42.063Z,38.43
2019-02-27T23:54:12.888Z,42.63
2019-02-27T23:56:43.826Z,43.20
2019-02-27T23:59:14.443Z,38.20
